createdAt,value
2023-08-17T00:02:35.459Z,17.80
2023-08-17T00:07:39.666Z,17.89
2023-08-17T00:12:43.712Z,17.78
2023-08-17T00:17:46.836Z,17.80
2023-08-17T00:22:50.872Z,17.81
2023-08-17T00:27:54.453Z,17.76
2023-08-17T00:32:58.345Z,17.74
2023-08-17T00:38:02.134Z,17.72
2023-08-17T00:43:09.183Z,17.65
2023-08-17T00:48:12.978Z,17.64
2023-08-17T00:53:17.596Z,17.58
2023-08-17T00:58:23.280Z,17.62
2023-08-17T01:03:31.690Z,17.53
2023-08-17T01:08:35.982Z,17.53
2023-08-17T01:14:07.487Z,17.39
2023-08-17T01:19:14.868Z,17.49
2023-08-17T01:24:18.621Z,17.30
2023-08-17T01:29:22.557Z,17.44
2023-08-17T01:34:28.704Z,17.40
2023-08-17T01:39:38.844Z,17.37
2023-08-17T01:44:42.798Z,17.34
2023-08-17T01:49:46.734Z,17.25
2023-08-17T01:54:51.639Z,17.29
2023-08-17T01:59:55.714Z,17.29
2023-08-17T02:04:59.813Z,17.33
2023-08-17T02:10:03.717Z,17.26
2023-08-17T02:15:08.404Z,17.21
2023-08-17T02:20:13.066Z,17.08
2023-08-17T02:25:16.321Z,17.01
2023-08-17T02:30:21.736Z,17.01
2023-08-17T02:35:25.341Z,16.80
2023-08-17T02:40:29.637Z,16.74
2023-08-17T02:45:33.253Z,16.77
2023-08-17T02:50:37.027Z,16.92
2023-08-17T02:55:40.780Z,16.97
2023-08-17T03:00:45.282Z,16.85
2023-08-17T03:05:48.457Z,16.85
2023-08-17T03:10:52.529Z,16.72
2023-08-17T03:15:56.624Z,16.73
2023-08-17T03:21:00.803Z,16.73
2023-08-17T03:26:04.733Z,16.77
2023-08-17T03:31:10.185Z,16.71
2023-08-17T03:36:15.422Z,16.71
2023-08-17T03:41:19.997Z,16.68
2023-08-17T03:46:23.713Z,16.68
2023-08-17T03:51:27.723Z,16.72
2023-08-17T03:56:33.014Z,16.68
2023-08-17T04:01:39.478Z,16.65
2023-08-17T04:06:43.099Z,16.56
2023-08-17T04:11:46.565Z,16.55
2023-08-17T04:16:49.753Z,16.77
2023-08-17T04:21:54.521Z,16.79
2023-08-17T04:26:57.736Z,16.73
2023-08-17T04:32:01.509Z,16.68
2023-08-17T04:37:05.105Z,17.02
2023-08-17T04:42:09.490Z,17.28
2023-08-17T04:47:12.995Z,17.27
2023-08-17T04:52:16.783Z,17.50
2023-08-17T04:57:20.381Z,17.68
2023-08-17T05:02:24.839Z,17.94
2023-08-17T05:07:29.587Z,18.21
2023-08-17T05:12:33.361Z,18.46
2023-08-17T05:17:38.018Z,18.72
2023-08-17T05:22:41.658Z,18.96
2023-08-17T05:27:45.448Z,19.27
2023-08-17T05:32:49.243Z,19.61
2023-08-17T05:37:53.350Z,20.14
2023-08-17T05:42:57.225Z,20.70
2023-08-17T05:48:01.179Z,21.12
2023-08-17T05:53:04.954Z,21.97
2023-08-17T05:58:09.683Z,22.45
2023-08-17T06:03:13.764Z,23.00
2023-08-17T06:08:18.120Z,23.33
2023-08-17T06:13:22.374Z,23.73
2023-08-17T06:18:25.959Z,24.20
2023-08-17T06:23:30.245Z,24.34
2023-08-17T06:28:33.632Z,26.93
2023-08-17T06:33:37.731Z,29.65
2023-08-17T06:38:41.534Z,30.30
2023-08-17T06:43:45.239Z,30.67
2023-08-17T06:48:49.833Z,31.48
2023-08-17T06:53:53.914Z,31.56
2023-08-17T06:58:57.413Z,31.92
2023-08-17T07:04:01.018Z,32.37
2023-08-17T07:09:06.531Z,32.36
2023-08-17T07:14:10.280Z,32.56
2023-08-17T07:19:17.046Z,32.63
2023-08-17T07:24:21.596Z,32.64
2023-08-17T07:29:24.731Z,32.85
2023-08-17T07:34:29.127Z,31.51
2023-08-17T07:39:33.054Z,32.64
2023-08-17T07:44:36.787Z,32.38
2023-08-17T07:49:41.431Z,32.29
2023-08-17T07:54:45.012Z,32.33
2023-08-17T07:59:49.235Z,31.79
2023-08-17T08:04:53.049Z,32.40
2023-08-17T08:09:56.841Z,32.66
2023-08-17T08:15:00.682Z,33.12
2023-08-17T08:20:05.806Z,32.07
2023-08-17T08:25:09.746Z,32.83
2023-08-17T08:30:13.296Z,31.94
2023-08-17T08:35:16.922Z,32.56
2023-08-17T08:40:22.181Z,31.97
2023-08-17T08:45:26.954Z,32.71
2023-08-17T08:50:34.036Z,32.76
2023-08-17T08:55:49.067Z,32.21
2023-08-17T09:00:52.702Z,32.53
2023-08-17T09:05:59.756Z,32.75
2023-08-17T09:11:04.550Z,32.84
2023-08-17T09:16:08.208Z,32.35
2023-08-17T09:21:23.716Z,32.86
2023-08-17T09:26:31.808Z,32.23
2023-08-17T09:31:35.984Z,32.29
2023-08-17T09:36:38.991Z,32.89
2023-08-17T09:41:43.923Z,32.11
2023-08-17T09:46:47.993Z,32.86
2023-08-17T09:51:53.931Z,33.96
2023-08-17T09:56:57.961Z,33.50
2023-08-17T10:02:01.793Z,33.35
2023-08-17T10:07:07.335Z,33.23
2023-08-17T10:12:17.886Z,33.68
2023-08-17T10:17:28.774Z,33.17
2023-08-17T10:23:08.390Z,34.51
2023-08-17T10:28:13.607Z,33.81
2023-08-17T10:33:17.906Z,33.55
2023-08-17T10:38:22.935Z,33.93
2023-08-17T10:43:35.137Z,34.16
2023-08-17T10:48:39.046Z,34.10
2023-08-17T10:53:46.294Z,34.81
2023-08-17T10:58:52.943Z,34.91
2023-08-17T11:04:19.056Z,34.75
2023-08-17T11:09:24.342Z,34.18
2023-08-17T11:14:35.120Z,34.93
2023-08-17T11:19:42.187Z,35.30
2023-08-17T11:24:46.043Z,36.88
2023-08-17T11:29:52.856Z,35.61
2023-08-17T11:34:59.412Z,35.00
2023-08-17T11:40:03.981Z,34.96
2023-08-17T11:45:11.546Z,36.27
2023-08-17T11:50:21.079Z,36.58
2023-08-17T11:55:25.614Z,34.61
2023-08-17T12:00:29.973Z,35.72
2023-08-17T12:05:34.972Z,36.92
2023-08-17T12:10:40.055Z,36.99
2023-08-17T12:15:44.756Z,37.14
2023-08-17T12:20:54.679Z,37.50
2023-08-17T12:25:58.782Z,37.23
2023-08-17T12:31:04.735Z,37.04
2023-08-17T12:36:08.712Z,36.57
2023-08-17T12:41:13.146Z,35.86
2023-08-17T12:46:17.547Z,35.91
2023-08-17T12:51:21.208Z,36.65
2023-08-17T12:56:24.798Z,36.51
2023-08-17T13:01:28.786Z,37.07
2023-08-17T13:06:43.805Z,37.59
2023-08-17T13:11:53.416Z,37.47
2023-08-17T13:16:57.739Z,37.94
2023-08-17T13:22:04.161Z,37.95
2023-08-17T13:27:08.589Z,37.15
2023-08-17T13:32:12.270Z,37.50
2023-08-17T13:37:16.007Z,35.83
2023-08-17T13:42:19.540Z,35.48
2023-08-17T13:47:24.943Z,33.42
2023-08-17T13:52:28.876Z,33.48
2023-08-17T13:57:32.963Z,34.17
2023-08-17T14:02:36.858Z,35.31
2023-08-17T14:07:41.236Z,34.36
2023-08-17T14:12:44.784Z,33.63
2023-08-17T14:17:48.979Z,31.86
2023-08-17T14:22:53.444Z,31.39
2023-08-17T14:27:57.355Z,29.94
2023-08-17T14:33:01.839Z,29.76
2023-08-17T14:38:06.047Z,29.47
2023-08-17T14:43:11.027Z,29.23
2023-08-17T14:48:14.882Z,28.98
2023-08-17T14:53:18.872Z,28.85
2023-08-17T14:58:22.747Z,28.85
2023-08-17T15:03:26.925Z,28.19
2023-08-17T15:08:30.603Z,27.63
2023-08-17T15:13:34.378Z,27.64
2023-08-17T15:18:38.001Z,27.41
2023-08-17T15:23:41.629Z,27.08
2023-08-17T15:28:46.716Z,26.96
2023-08-17T15:33:50.515Z,27.71
2023-08-17T15:38:54.139Z,28.62
2023-08-17T15:43:58.630Z,28.79
2023-08-17T15:49:02.371Z,28.60
2023-08-17T15:54:06.458Z,28.86
2023-08-17T15:59:10.414Z,28.87
2023-08-17T16:04:13.875Z,28.79
2023-08-17T16:09:18.270Z,28.50
2023-08-17T16:14:22.017Z,28.26
2023-08-17T16:19:26.560Z,27.85
2023-08-17T16:24:30.781Z,27.40
2023-08-17T16:29:34.512Z,27.09
2023-08-17T16:34:38.566Z,26.61
2023-08-17T16:39:42.308Z,26.38
2023-08-17T16:44:46.383Z,26.31
2023-08-17T16:49:49.507Z,25.89
2023-08-17T16:54:53.153Z,25.60
2023-08-17T16:59:57.190Z,25.20
2023-08-17T17:05:01.382Z,24.85
2023-08-17T17:10:05.278Z,24.77
2023-08-17T17:15:10.138Z,24.66
2023-08-17T17:20:14.340Z,24.61
2023-08-17T17:25:18.855Z,24.20
2023-08-17T17:30:22.501Z,23.91
2023-08-17T17:35:26.365Z,23.76
2023-08-17T17:40:30.559Z,23.48
2023-08-17T17:45:34.061Z,23.31
2023-08-17T17:50:38.046Z,23.02
2023-08-17T17:55:42.369Z,22.78
2023-08-17T18:00:48.715Z,22.79
2023-08-17T18:05:52.805Z,22.56
2023-08-17T18:10:57.231Z,22.38
2023-08-17T18:16:01.441Z,22.22
2023-08-17T18:21:08.303Z,22.08
2023-08-17T18:26:12.175Z,21.96
2023-08-17T18:31:16.260Z,21.84
2023-08-17T18:36:20.505Z,21.68
2023-08-17T18:41:24.267Z,21.67
2023-08-17T18:46:28.613Z,21.64
2023-08-17T18:51:33.061Z,21.61
2023-08-17T18:56:37.097Z,21.70
2023-08-17T19:01:41.274Z,21.78
2023-08-17T19:06:45.592Z,21.81
2023-08-17T19:11:49.228Z,21.76
2023-08-17T19:16:53.266Z,21.64
2023-08-17T19:21:56.832Z,21.48
2023-08-17T19:27:01.024Z,21.39
2023-08-17T19:32:05.620Z,21.45
2023-08-17T19:37:09.324Z,21.31
2023-08-17T19:42:13.553Z,21.08
2023-08-17T19:47:18.756Z,21.23
2023-08-17T19:52:24.329Z,21.29
2023-08-17T19:57:28.740Z,21.07
2023-08-17T20:02:33.233Z,21.19
2023-08-17T20:07:38.155Z,21.24
2023-08-17T20:12:41.847Z,21.14
2023-08-17T20:17:45.971Z,21.03
2023-08-17T20:22:50.146Z,21.24
2023-08-17T20:27:54.041Z,21.51
2023-08-17T20:32:57.996Z,21.47
2023-08-17T20:38:02.418Z,21.34
2023-08-17T20:43:06.806Z,21.20
2023-08-17T20:48:11.060Z,21.07
2023-08-17T20:53:16.412Z,20.99
2023-08-17T20:58:20.055Z,21.03
2023-08-17T21:03:24.151Z,21.02
2023-08-17T21:08:28.831Z,21.07
2023-08-17T21:13:33.679Z,21.06
2023-08-17T21:18:37.732Z,21.01
2023-08-17T21:23:41.966Z,21.05
2023-08-17T21:28:45.590Z,21.11
2023-08-17T21:33:49.149Z,21.11
2023-08-17T21:38:52.593Z,20.96
2023-08-17T21:43:57.089Z,21.09
2023-08-17T21:49:01.181Z,20.97
2023-08-17T21:54:05.033Z,20.51
2023-08-17T21:59:09.104Z,20.83
2023-08-17T22:04:12.503Z,20.60
2023-08-17T22:09:16.116Z,20.55
2023-08-17T22:14:20.044Z,20.06
2023-08-17T22:19:23.872Z,20.06
2023-08-17T22:24:34.850Z,19.85
2023-08-17T22:29:41.137Z,19.64
2023-08-17T22:34:45.059Z,19.43
2023-08-17T22:39:49.362Z,19.16
2023-08-17T22:44:53.316Z,18.97
2023-08-17T22:49:57.403Z,18.83
2023-08-17T22:55:01.493Z,18.56
2023-08-17T23:00:07.412Z,18.61
2023-08-17T23:05:11.694Z,18.55
2023-08-17T23:10:15.310Z,18.52
2023-08-17T23:15:23.005Z,18.43
2023-08-17T23:20:27.579Z,18.42
2023-08-17T23:25:32.810Z,18.33
2023-08-17T23:30:39.670Z,18.22
2023-08-17T23:35:43.548Z,18.05
2023-08-17T23:40:47.551Z,17.94
2023-08-17T23:45:51.658Z,18.05
2023-08-17T23:50:55.548Z,18.11
2023-08-17T23:55:59.361Z,18.05
